createdAt,value
2019-04-03T00:01:07.694Z,14.00
2019-04-03T00:03:36.155Z,13.90
2019-04-03T00:06:05.598Z,13.90
2019-04-03T00:08:36.147Z,13.90
2019-04-03T00:11:05.065Z,13.90
2019-04-03T00:13:33.614Z,13.80
2019-04-03T00:16:02.286Z,13.70
2019-04-03T00:18:30.940Z,13.60
2019-04-03T00:20:59.656Z,13.50
2019-04-03T00:23:28.190Z,13.30
2019-04-03T00:25:56.685Z,13.30
2019-04-03T00:28:25.453Z,13.30
2019-04-03T00:30:53.905Z,13.20
2019-04-03T00:33:23.374Z,13.10
2019-04-03T00:35:53.646Z,13.10
2019-04-03T00:38:23.921Z,13.00
2019-04-03T00:40:54.404Z,13.00
2019-04-03T00:43:24.615Z,13.00
2019-04-03T00:45:54.569Z,12.90
2019-04-03T00:48:25.737Z,12.90
2019-04-03T00:50:56.182Z,12.80
2019-04-03T00:53:24.405Z,12.80
2019-04-03T00:55:53.163Z,12.80
2019-04-03T00:58:36.212Z,12.80
2019-04-03T01:01:07.156Z,12.80
2019-04-03T01:03:35.594Z,12.80
2019-04-03T01:06:04.194Z,12.70
2019-04-03T01:08:32.826Z,12.70
2019-04-03T01:11:01.290Z,12.70
2019-04-03T01:13:31.318Z,12.70
2019-04-03T01:16:02.137Z,12.70
2019-04-03T01:18:30.699Z,12.60
2019-04-03T01:20:59.230Z,12.50
2019-04-03T01:23:27.750Z,12.50
2019-04-03T01:25:56.279Z,12.40
2019-04-03T01:28:24.711Z,12.40
2019-04-03T01:30:53.189Z,12.40
2019-04-03T01:33:21.764Z,12.30
2019-04-03T01:35:50.407Z,12.30
2019-04-03T01:38:19.470Z,12.20
2019-04-03T01:40:48.917Z,12.10
2019-04-03T01:43:18.913Z,12.00
2019-04-03T01:45:47.656Z,12.00
2019-04-03T01:48:16.156Z,12.00
2019-04-03T01:50:44.605Z,12.00
2019-04-03T01:53:13.071Z,12.00
2019-04-03T01:55:41.576Z,11.90
2019-04-03T01:58:10.277Z,11.80
2019-04-03T02:00:38.857Z,11.80
2019-04-03T02:03:09.736Z,11.70
2019-04-03T02:05:37.639Z,11.70
2019-04-03T02:08:06.241Z,11.70
2019-04-03T02:10:35.286Z,11.60
2019-04-03T02:13:04.091Z,11.70
2019-04-03T02:15:32.929Z,11.60
2019-04-03T02:18:01.425Z,11.60
2019-04-03T02:20:30.040Z,11.60
2019-04-03T02:23:00.408Z,11.60
2019-04-03T02:25:31.553Z,11.60
2019-04-03T02:27:58.863Z,11.60
2019-04-03T02:30:27.374Z,11.60
2019-04-03T02:32:57.259Z,11.60
2019-04-03T02:35:26.497Z,11.60
2019-04-03T02:37:55.024Z,11.60
2019-04-03T02:40:23.483Z,11.70
2019-04-03T02:42:52.219Z,11.70
2019-04-03T02:45:24.019Z,11.60
2019-04-03T02:47:51.337Z,11.60
2019-04-03T02:50:23.156Z,11.60
2019-04-03T02:52:52.120Z,11.70
2019-04-03T02:55:20.683Z,11.70
2019-04-03T02:57:49.984Z,11.70
2019-04-03T03:00:19.078Z,11.70
2019-04-03T03:02:47.652Z,11.70
2019-04-03T03:05:16.276Z,11.70
2019-04-03T03:07:45.209Z,11.70
2019-04-03T03:10:18.617Z,11.70
2019-04-03T03:12:45.430Z,11.70
2019-04-03T03:15:14.076Z,11.70
2019-04-03T03:17:42.807Z,11.70
2019-04-03T03:20:12.189Z,11.70
2019-04-03T03:22:41.156Z,11.70
2019-04-03T03:25:10.988Z,11.70
2019-04-03T03:27:41.707Z,11.70
2019-04-03T03:30:31.527Z,11.70
2019-04-03T03:32:40.944Z,11.70
2019-04-03T03:35:14.963Z,11.70
2019-04-03T03:37:40.790Z,11.70
2019-04-03T03:40:09.553Z,11.70
2019-04-03T03:42:38.261Z,11.70
2019-04-03T03:45:07.744Z,11.70
2019-04-03T03:47:37.769Z,11.80
2019-04-03T03:50:08.368Z,11.70
2019-04-03T03:52:39.204Z,11.70
2019-04-03T03:55:08.471Z,11.70
2019-04-03T03:57:40.315Z,11.60
2019-04-03T04:00:10.172Z,11.60
2019-04-03T04:02:43.104Z,11.60
2019-04-03T04:05:11.530Z,11.60
2019-04-03T04:07:39.799Z,11.60
2019-04-03T04:10:08.756Z,11.70
2019-04-03T04:12:41.297Z,11.70
2019-04-03T04:15:08.096Z,11.80
2019-04-03T04:17:36.994Z,11.80
2019-04-03T04:20:07.378Z,11.90
2019-04-03T04:22:37.360Z,11.80
2019-04-03T04:25:06.973Z,11.80
2019-04-03T04:27:37.904Z,11.80
2019-04-03T04:30:06.864Z,11.90
2019-04-03T04:32:35.556Z,11.90
2019-04-03T04:35:05.829Z,11.80
2019-04-03T04:37:34.649Z,11.80
2019-04-03T04:40:03.357Z,11.80
2019-04-03T04:42:34.408Z,11.90
2019-04-03T04:45:02.719Z,11.80
2019-04-03T04:47:31.308Z,11.80
2019-04-03T04:49:59.808Z,11.80
2019-04-03T04:52:28.366Z,11.80
2019-04-03T04:54:56.954Z,11.80
2019-04-03T04:57:25.544Z,11.80
2019-04-03T04:59:54.261Z,11.80
2019-04-03T05:02:28.423Z,11.80
2019-04-03T05:04:57.191Z,11.80
2019-04-03T05:07:25.780Z,11.80
2019-04-03T05:09:54.687Z,11.80
2019-04-03T05:12:23.168Z,11.80
2019-04-03T05:14:51.711Z,11.80
2019-04-03T05:17:20.154Z,11.80
2019-04-03T05:19:49.560Z,11.80
2019-04-03T05:22:18.135Z,11.80
2019-04-03T05:24:47.272Z,11.80
2019-04-03T05:27:15.899Z,11.80
2019-04-03T05:29:44.557Z,11.80
2019-04-03T05:32:13.071Z,11.80
2019-04-03T05:34:43.645Z,11.80
2019-04-03T05:37:12.549Z,11.80
2019-04-03T05:39:41.322Z,11.80
2019-04-03T05:42:10.049Z,11.80
2019-04-03T05:44:38.722Z,11.80
2019-04-03T05:47:08.455Z,11.80
2019-04-03T05:49:37.615Z,11.80
2019-04-03T05:52:06.071Z,11.70
2019-04-03T05:54:34.698Z,11.70
2019-04-03T05:57:03.233Z,11.70
2019-04-03T05:59:33.673Z,11.80
2019-04-03T06:02:14.130Z,11.80
2019-04-03T06:04:32.103Z,11.80
2019-04-03T06:07:01.032Z,11.90
2019-04-03T06:09:29.896Z,11.90
2019-04-03T06:11:58.726Z,11.90
2019-04-03T06:14:27.340Z,11.80
2019-04-03T06:16:56.707Z,11.80
2019-04-03T06:19:25.396Z,11.80
2019-04-03T06:21:53.975Z,11.80
2019-04-03T06:24:24.383Z,11.80
2019-04-03T06:26:52.795Z,11.80
2019-04-03T06:29:21.331Z,11.90
2019-04-03T06:31:49.787Z,11.90
2019-04-03T06:34:18.280Z,11.90
2019-04-03T06:36:50.162Z,11.90
2019-04-03T06:39:17.548Z,12.00
2019-04-03T06:41:46.713Z,12.00
2019-04-03T06:44:15.302Z,12.00
2019-04-03T06:46:43.772Z,12.00
2019-04-03T06:49:12.365Z,12.00
2019-04-03T06:51:41.112Z,12.00
2019-04-03T06:54:09.570Z,12.00
2019-04-03T06:56:40.001Z,12.00
2019-04-03T06:59:08.701Z,12.00
2019-04-03T07:01:37.334Z,11.90
2019-04-03T07:04:06.473Z,11.90
2019-04-03T07:06:35.586Z,11.90
2019-04-03T07:09:06.279Z,11.90
2019-04-03T07:11:34.751Z,11.90
2019-04-03T07:14:03.603Z,11.90
2019-04-03T07:16:32.547Z,11.80
2019-04-03T07:19:00.991Z,11.90
2019-04-03T07:21:29.498Z,11.90
2019-04-03T07:24:00.095Z,11.90
2019-04-03T07:26:28.554Z,11.80
2019-04-03T07:28:57.366Z,11.80
2019-04-03T07:31:25.882Z,11.70
2019-04-03T07:33:57.194Z,11.60
2019-04-03T07:36:24.595Z,11.60
2019-04-03T07:38:53.576Z,11.40
2019-04-03T07:41:23.424Z,11.30
2019-04-03T07:43:52.526Z,11.30
2019-04-03T07:46:21.310Z,11.30
2019-04-03T07:48:49.858Z,11.30
2019-04-03T07:51:18.334Z,11.30
2019-04-03T07:53:46.883Z,11.30
2019-04-03T07:56:15.470Z,11.30
2019-04-03T07:58:44.003Z,11.30
2019-04-03T08:01:12.523Z,11.30
2019-04-03T08:03:40.991Z,11.30
2019-04-03T08:06:09.546Z,11.30
2019-04-03T08:08:38.188Z,11.30
2019-04-03T08:11:06.651Z,11.30
2019-04-03T08:13:37.622Z,11.40
2019-04-03T08:16:05.346Z,11.30
2019-04-03T08:18:33.776Z,11.30
2019-04-03T08:21:02.361Z,11.30
2019-04-03T08:23:30.857Z,11.30
2019-04-03T08:25:59.420Z,11.40
2019-04-03T08:28:30.172Z,11.40
2019-04-03T08:30:58.060Z,11.30
2019-04-03T08:33:27.766Z,11.20
2019-04-03T08:35:56.896Z,11.20
2019-04-03T08:38:25.428Z,11.20
2019-04-03T08:40:53.913Z,11.30
2019-04-03T08:43:22.576Z,11.30
2019-04-03T08:45:51.053Z,11.20
2019-04-03T08:48:19.510Z,11.00
2019-04-03T08:50:47.957Z,11.00
2019-04-03T08:53:16.469Z,10.90
2019-04-03T08:55:46.407Z,11.10
2019-04-03T08:58:15.152Z,11.10
2019-04-03T09:00:43.671Z,11.00
2019-04-03T09:03:14.428Z,10.90
2019-04-03T09:05:42.523Z,10.80
2019-04-03T09:08:11.054Z,10.50
2019-04-03T09:10:39.554Z,10.30
2019-04-03T09:13:16.950Z,10.10
2019-04-03T09:15:38.424Z,9.90
2019-04-03T09:18:07.686Z,9.90
2019-04-03T09:20:36.825Z,9.60
2019-04-03T09:23:05.499Z,9.60
2019-04-03T09:25:34.110Z,9.50
2019-04-03T09:28:03.028Z,9.30
2019-04-03T09:30:31.782Z,9.20
2019-04-03T09:33:00.752Z,9.10
2019-04-03T09:35:32.070Z,9.10
2019-04-03T09:38:00.752Z,8.90
2019-04-03T09:40:29.487Z,8.90
2019-04-03T09:43:04.200Z,8.90
2019-04-03T09:45:32.986Z,9.00
2019-04-03T09:48:05.050Z,9.00
2019-04-03T09:50:33.452Z,9.00
2019-04-03T09:53:02.843Z,9.10
2019-04-03T09:55:36.034Z,9.10
2019-04-03T09:58:03.214Z,9.00
2019-04-03T10:00:31.948Z,8.90
2019-04-03T10:03:00.776Z,8.70
2019-04-03T10:05:29.750Z,8.70
2019-04-03T10:07:58.379Z,8.60
2019-04-03T10:10:27.057Z,8.60
2019-04-03T10:12:55.566Z,8.70
2019-04-03T10:15:24.147Z,9.10
2019-04-03T10:17:52.856Z,9.20
2019-04-03T10:20:21.415Z,9.30
2019-04-03T10:22:49.937Z,9.40
2019-04-03T10:25:18.813Z,9.40
2019-04-03T10:27:47.326Z,9.50
2019-04-03T10:30:16.624Z,9.70
2019-04-03T10:32:45.684Z,10.00
2019-04-03T10:35:14.816Z,10.30
2019-04-03T10:37:45.697Z,10.60
2019-04-03T10:40:15.545Z,10.60
2019-04-03T10:42:44.245Z,10.60
2019-04-03T10:45:13.629Z,10.50
2019-04-03T10:47:44.075Z,10.60
2019-04-03T10:50:12.797Z,10.60
2019-04-03T10:52:44.063Z,10.60
2019-04-03T10:55:11.790Z,10.50
2019-04-03T10:57:40.334Z,10.60
2019-04-03T11:00:12.369Z,10.50
2019-04-03T11:02:41.085Z,10.40
2019-04-03T11:05:11.208Z,10.20
2019-04-03T11:07:39.680Z,10.30
2019-04-03T11:10:10.076Z,10.40
2019-04-03T11:12:38.661Z,10.40
2019-04-03T11:15:10.824Z,10.30
2019-04-03T11:17:38.901Z,10.10
2019-04-03T11:20:09.713Z,9.90
2019-04-03T11:22:41.671Z,9.90
2019-04-03T11:25:09.698Z,9.80
2019-04-03T11:27:44.058Z,9.60
2019-04-03T11:30:16.953Z,9.40
2019-04-03T11:32:45.181Z,9.30
2019-04-03T11:35:15.238Z,9.30
2019-04-03T11:37:43.822Z,9.40
2019-04-03T11:40:13.311Z,9.50
2019-04-03T11:42:41.763Z,9.50
2019-04-03T11:45:11.261Z,9.30
2019-04-03T11:47:39.853Z,9.20
2019-04-03T11:50:09.503Z,9.10
2019-04-03T11:52:38.187Z,9.20
2019-04-03T11:55:10.010Z,9.20
2019-04-03T11:57:37.709Z,9.30
2019-04-03T12:00:11.074Z,9.30
2019-04-03T12:02:40.367Z,9.40
2019-04-03T12:05:10.177Z,9.40
2019-04-03T12:07:38.642Z,9.40
2019-04-03T12:10:07.582Z,9.30
2019-04-03T12:12:41.643Z,9.50
2019-04-03T12:15:09.700Z,9.60
2019-04-03T12:17:38.883Z,9.60
2019-04-03T12:20:09.372Z,9.60
2019-04-03T12:22:38.516Z,9.60
2019-04-03T12:25:08.360Z,9.60
2019-04-03T12:27:36.980Z,9.60
2019-04-03T12:30:09.531Z,9.70
2019-04-03T12:32:43.007Z,9.70
2019-04-03T12:35:09.738Z,9.90
2019-04-03T12:37:39.261Z,10.00
2019-04-03T12:40:08.604Z,10.10
2019-04-03T12:42:37.123Z,10.30
2019-04-03T12:45:07.450Z,10.50
2019-04-03T12:47:36.175Z,10.30
2019-04-03T12:50:07.514Z,10.30
2019-04-03T12:52:36.607Z,10.20
2019-04-03T12:55:08.627Z,10.20
2019-04-03T12:57:39.266Z,10.30
2019-04-03T13:00:12.945Z,10.10
2019-04-03T13:02:42.354Z,10.00
2019-04-03T13:05:12.003Z,9.90
2019-04-03T13:07:40.634Z,9.70
2019-04-03T13:10:10.121Z,9.70
2019-04-03T13:12:38.669Z,9.80
2019-04-03T13:15:09.691Z,9.90
2019-04-03T13:17:38.312Z,10.00
2019-04-03T13:20:08.080Z,10.00
2019-04-03T13:22:36.595Z,9.90
2019-04-03T13:25:09.593Z,9.90
2019-04-03T13:27:38.317Z,9.90
2019-04-03T13:30:12.889Z,10.10
2019-04-03T13:32:43.035Z,10.10
2019-04-03T13:35:14.646Z,10.10
2019-04-03T13:37:42.550Z,10.10
2019-04-03T13:40:11.831Z,10.20
2019-04-03T13:42:40.407Z,10.30
2019-04-03T13:45:09.444Z,10.20
2019-04-03T13:47:41.756Z,10.20
2019-04-03T13:50:09.507Z,10.20
2019-04-03T13:52:42.576Z,10.00
2019-04-03T13:55:09.625Z,9.90
2019-04-03T13:57:38.598Z,9.90
2019-04-03T14:00:18.278Z,9.80
2019-04-03T14:02:40.127Z,9.80
2019-04-03T14:05:09.758Z,9.70
2019-04-03T14:07:41.510Z,9.70
2019-04-03T14:10:09.777Z,9.80
2019-04-03T14:12:43.201Z,9.80
2019-04-03T14:15:09.769Z,9.70
2019-04-03T14:17:39.139Z,9.60
2019-04-03T14:20:09.047Z,9.60
2019-04-03T14:22:37.631Z,9.60
2019-04-03T14:25:17.787Z,9.50
2019-04-03T14:27:37.745Z,9.50
2019-04-03T14:30:11.749Z,9.60
2019-04-03T14:32:40.256Z,9.60
2019-04-03T14:35:41.097Z,9.50
2019-04-03T14:37:39.830Z,9.40
2019-04-03T14:40:11.100Z,9.40
2019-04-03T14:42:39.149Z,9.40
2019-04-03T14:45:08.979Z,9.40
2019-04-03T14:47:37.539Z,9.20
2019-04-03T14:50:07.174Z,9.30
2019-04-03T14:52:36.326Z,9.10
2019-04-03T14:55:23.334Z,9.10
2019-04-03T14:57:37.472Z,9.00
2019-04-03T15:00:25.225Z,8.90
2019-04-03T15:02:41.390Z,8.90
2019-04-03T15:05:11.934Z,8.80
2019-04-03T15:07:40.595Z,8.80
2019-04-03T15:10:09.793Z,8.70
2019-04-03T15:12:39.745Z,8.60
2019-04-03T15:15:09.675Z,8.60
2019-04-03T15:17:38.902Z,8.60
2019-04-03T15:20:09.771Z,8.50
2019-04-03T15:22:38.373Z,8.40
2019-04-03T15:25:07.505Z,8.30
2019-04-03T15:27:36.433Z,8.20
2019-04-03T15:30:09.960Z,8.00
2019-04-03T15:32:38.190Z,8.00
2019-04-03T15:35:07.974Z,8.00
2019-04-03T15:37:40.087Z,8.00
2019-04-03T15:40:07.976Z,7.90
2019-04-03T15:42:38.405Z,7.90
2019-04-03T15:45:08.963Z,7.90
2019-04-03T15:47:41.756Z,7.90
2019-04-03T15:50:08.969Z,7.90
2019-04-03T15:52:38.592Z,7.80
2019-04-03T15:55:08.391Z,7.80
2019-04-03T15:57:39.610Z,7.70
2019-04-03T16:00:15.993Z,7.80
2019-04-03T16:02:46.379Z,7.70
2019-04-03T16:05:15.569Z,7.70
2019-04-03T16:07:44.950Z,7.70
2019-04-03T16:10:14.247Z,7.70
2019-04-03T16:12:44.022Z,7.70
2019-04-03T16:15:12.840Z,7.80
2019-04-03T16:17:41.996Z,7.80
2019-04-03T16:20:11.489Z,7.90
2019-04-03T16:22:40.238Z,7.80
2019-04-03T16:25:09.338Z,7.80
2019-04-03T16:27:37.996Z,7.80
2019-04-03T16:30:08.825Z,7.80
2019-04-03T16:32:37.679Z,7.80
2019-04-03T16:35:07.815Z,7.90
2019-04-03T16:37:36.550Z,7.90
2019-04-03T16:40:07.019Z,7.90
2019-04-03T16:42:35.652Z,7.80
2019-04-03T16:45:08.519Z,7.80
2019-04-03T16:47:37.258Z,7.60
2019-04-03T16:50:09.887Z,7.50
2019-04-03T16:52:38.766Z,7.50
2019-04-03T16:55:09.117Z,7.50
2019-04-03T16:57:38.269Z,7.40
2019-04-03T17:00:09.565Z,7.30
2019-04-03T17:02:38.850Z,7.40
2019-04-03T17:05:11.331Z,7.40
2019-04-03T17:07:39.279Z,7.30
2019-04-03T17:10:09.937Z,7.30
2019-04-03T17:12:38.478Z,7.30
2019-04-03T17:15:09.594Z,7.30
2019-04-03T17:17:37.673Z,7.30
2019-04-03T17:20:07.968Z,7.30
2019-04-03T17:22:38.897Z,7.20
2019-04-03T17:25:08.747Z,7.20
2019-04-03T17:27:39.319Z,7.10
2019-04-03T17:30:10.350Z,7.00
2019-04-03T17:32:39.944Z,7.00
2019-04-03T17:35:08.884Z,7.10
2019-04-03T17:37:38.456Z,7.10
2019-04-03T17:40:10.118Z,7.00
2019-04-03T17:42:39.233Z,7.00
2019-04-03T17:45:09.635Z,7.00
2019-04-03T17:47:38.171Z,7.20
2019-04-03T17:50:08.564Z,7.20
2019-04-03T17:52:37.217Z,7.20
2019-04-03T17:55:10.067Z,7.20
2019-04-03T17:57:39.383Z,7.10
2019-04-03T18:00:13.921Z,7.10
2019-04-03T18:02:42.591Z,7.00
2019-04-03T18:05:11.655Z,7.00
2019-04-03T18:07:40.572Z,7.00
2019-04-03T18:10:12.444Z,7.00
2019-04-03T18:12:39.966Z,6.90
2019-04-03T18:15:09.792Z,6.80
2019-04-03T18:17:38.428Z,6.70
2019-04-03T18:20:08.212Z,6.60
2019-04-03T18:22:36.735Z,6.50
2019-04-03T18:25:08.359Z,6.50
2019-04-03T18:27:37.108Z,6.50
2019-04-03T18:30:11.425Z,6.50
2019-04-03T18:32:38.830Z,6.50
2019-04-03T18:35:07.954Z,6.60
2019-04-03T18:37:36.450Z,6.60
2019-04-03T18:40:07.171Z,6.60
2019-04-03T18:42:35.815Z,6.70
2019-04-03T18:45:05.964Z,6.70
2019-04-03T18:47:41.284Z,6.70
2019-04-03T18:50:06.496Z,6.80
2019-04-03T18:52:38.550Z,6.70
2019-04-03T18:55:07.637Z,6.80
2019-04-03T18:57:36.300Z,6.80
2019-04-03T19:00:08.153Z,6.90
2019-04-03T19:02:36.732Z,6.90
2019-04-03T19:05:09.870Z,7.00
2019-04-03T19:07:38.960Z,6.90
2019-04-03T19:10:08.297Z,6.90
2019-04-03T19:12:37.214Z,7.00
2019-04-03T19:15:07.028Z,7.00
2019-04-03T19:17:35.569Z,7.00
2019-04-03T19:20:10.776Z,7.00
2019-04-03T19:22:36.061Z,7.10
2019-04-03T19:25:07.004Z,7.10
2019-04-03T19:27:35.848Z,7.10
2019-04-03T19:30:07.051Z,7.20
2019-04-03T19:32:36.702Z,7.20
2019-04-03T19:35:09.452Z,7.30
2019-04-03T19:37:39.150Z,7.10
2019-04-03T19:40:09.700Z,6.90
2019-04-03T19:42:38.822Z,7.00
2019-04-03T19:45:08.143Z,7.20
2019-04-03T19:47:36.879Z,7.20
2019-04-03T19:50:09.438Z,7.20
2019-04-03T19:52:41.615Z,7.10
2019-04-03T19:55:09.171Z,7.10
2019-04-03T19:57:38.000Z,7.10
2019-04-03T20:00:08.139Z,7.00
2019-04-03T20:02:38.214Z,6.80
2019-04-03T20:05:07.262Z,6.50
2019-04-03T20:07:35.804Z,6.40
2019-04-03T20:10:07.147Z,6.50
2019-04-03T20:12:35.782Z,6.40
2019-04-03T20:15:07.112Z,6.30
2019-04-03T20:17:36.818Z,6.30
2019-04-03T20:20:09.281Z,6.40
2019-04-03T20:22:42.133Z,6.50
2019-04-03T20:25:08.365Z,6.50
2019-04-03T20:27:37.180Z,6.60
2019-04-03T20:30:09.149Z,6.70
2019-04-03T20:32:40.079Z,6.80
2019-04-03T20:35:08.678Z,6.90
2019-04-03T20:37:37.337Z,7.00
2019-04-03T20:40:09.152Z,7.10
2019-04-03T20:42:40.808Z,7.10
2019-04-03T20:45:08.482Z,7.10
2019-04-03T20:47:37.073Z,7.10
2019-04-03T20:50:07.891Z,7.10
2019-04-03T20:52:36.378Z,7.10
2019-04-03T20:55:06.760Z,7.00
2019-04-03T20:57:35.328Z,7.00
2019-04-03T21:00:12.172Z,7.00
2019-04-03T21:02:42.153Z,6.90
2019-04-03T21:05:11.007Z,7.00
2019-04-03T21:07:39.528Z,6.90
2019-04-03T21:10:08.809Z,6.80
2019-04-03T21:12:37.490Z,6.80
2019-04-03T21:15:08.819Z,6.80
2019-04-03T21:17:36.439Z,6.80
2019-04-03T21:20:06.924Z,6.80
2019-04-03T21:22:35.371Z,6.80
2019-04-03T21:25:05.979Z,6.70
2019-04-03T21:27:34.989Z,6.70
2019-04-03T21:30:05.273Z,6.80
2019-04-03T21:32:33.908Z,6.80
2019-04-03T21:35:03.923Z,6.80
2019-04-03T21:37:32.912Z,6.70
2019-04-03T21:40:04.697Z,6.80
2019-04-03T21:42:31.852Z,6.90
2019-04-03T21:45:02.576Z,6.90
2019-04-03T21:47:30.990Z,6.80
2019-04-03T21:49:59.481Z,6.80
2019-04-03T21:52:27.971Z,6.80
2019-04-03T21:54:58.434Z,6.70
2019-04-03T21:57:26.942Z,6.70
2019-04-03T21:59:55.525Z,6.60
2019-04-03T22:02:23.995Z,6.60
2019-04-03T22:04:53.874Z,6.60
2019-04-03T22:07:23.043Z,6.60
2019-04-03T22:09:51.502Z,6.70
2019-04-03T22:12:20.050Z,6.70
2019-04-03T22:14:48.515Z,6.70
2019-04-03T22:17:16.990Z,6.60
2019-04-03T22:19:45.683Z,6.60
2019-04-03T22:22:14.304Z,6.60
2019-04-03T22:24:42.747Z,6.70
2019-04-03T22:27:11.516Z,6.70
2019-04-03T22:29:40.747Z,6.70
2019-04-03T22:32:09.367Z,6.70
2019-04-03T22:34:37.844Z,6.70
2019-04-03T22:37:06.810Z,6.70
2019-04-03T22:39:36.982Z,6.70
2019-04-03T22:42:05.612Z,6.70
2019-04-03T22:44:34.043Z,6.70
2019-04-03T22:47:02.547Z,6.70
2019-04-03T22:49:33.626Z,6.70
2019-04-03T22:52:01.436Z,6.70
2019-04-03T22:54:30.502Z,6.70
2019-04-03T22:56:59.032Z,6.70
2019-04-03T22:59:27.495Z,6.70
2019-04-03T23:01:56.244Z,6.70
2019-04-03T23:04:24.706Z,6.70
2019-04-03T23:06:53.391Z,6.70
2019-04-03T23:09:24.726Z,6.70
2019-04-03T23:11:52.291Z,6.70
2019-04-03T23:14:21.004Z,6.70
2019-04-03T23:16:49.706Z,6.70
2019-04-03T23:19:18.618Z,6.80
2019-04-03T23:21:47.161Z,6.70
2019-04-03T23:24:15.678Z,6.70
2019-04-03T23:26:44.122Z,6.70
2019-04-03T23:29:12.838Z,6.60
2019-04-03T23:31:44.658Z,6.50
2019-04-03T23:34:11.762Z,6.40
2019-04-03T23:36:40.484Z,6.40
2019-04-03T23:39:09.430Z,6.40
2019-04-03T23:41:37.935Z,6.40
2019-04-03T23:44:06.389Z,6.40
2019-04-03T23:46:35.148Z,6.50
2019-04-03T23:49:03.699Z,6.50
2019-04-03T23:51:32.786Z,6.50
2019-04-03T23:54:02.814Z,6.50
2019-04-03T23:56:31.932Z,6.50
2019-04-03T23:59:00.561Z,6.50
